Decoded Metar for KOZW (HOWELL in MI, USA) (IATA:OZW) | Meteo·Mobile Aviation Weather
aviador You're here:

KOZW Decoded Metar

HOWELL in MI, USA
Report Time2018-12-18 16:35:00
UTC Time2018-12-18 16:55:05
Flight Rules vfr VFR
Wind140° at 04 kt
W.Decomp.*RWY 13: 3.9 kt HW 1.0 kt RCW
W.Rank140° ranks 16
Current wind is below 140° avg. (6.7)
Visibility9999 m
Phenomena:N/A
Clouds:Scattered 019 Hf
Expected CloudBase > 2,000 ft AGL from Temp-Dew spread
CeilingNone
Temp00°C (ISA -13)
Dew Point-5°C (69% RH)
AAT-4.1°C
QNH1024 hPa
Density Alt-948 ft
Elevation961 ft
Report Wrong Elevation
Raw Report
KOZW 181635Z AUTO 14004KT 10SM SCT019 00/M05 A3025 RMK AO2
T10051052=

Extra information for KOZW:More info

Metar Taf Metar & Taf Last 4 Metars F.Rules Stats Wind Profile Meteogram Temp Stats Airport Information Weather charts Add Link Nearby VenuesMetar ALERT Operation Metar Decoded Social comments

AIRNAV info for KOZW